sensor_id;sensor_type;location;lat;lon;timestamp;pressure;altitude;pressure_sealevel;temperature;humidity
45275;BME280;31019;43.780;25.948;2023-06-19T00:00:04;100896.25;;;20.96;100.00
45275;BME280;31019;43.780;25.948;2023-06-19T00:02:38;100895.72;;;21.10;100.00
45275;BME280;31019;43.780;25.948;2023-06-19T00:05:07;100892.47;;;21.02;100.00
45275;BME280;31019;43.780;25.948;2023-06-19T00:07:34;100889.00;;;20.97;100.00
45275;BME280;31019;43.780;25.948;2023-06-19T00:10:01;100882.50;;;20.98;100.00
45275;BME280;31019;43.780;25.948;2023-06-19T00:12:27;100883.31;;;20.93;100.00
45275;BME280;31019;43.780;25.948;2023-06-19T00:14:54;100888.66;;;20.47;100.00
45275;BME280;31019;43.780;25.948;2023-06-19T00:17:21;100886.47;;;20.39;100.00
45275;BME280;31019;43.780;25.948;2023-06-19T00:19:51;100890.28;;;20.43;100.00
45275;BME280;31019;43.780;25.948;2023-06-19T00:22:20;100893.84;;;20.64;100.00
45275;BME280;31019;43.780;25.948;2023-06-19T00:24:47;100878.97;;;20.46;100.00
45275;BME280;31019;43.780;25.948;2023-06-19T00:27:14;100884.59;;;20.45;100.00
45275;BME280;31019;43.780;25.948;2023-06-19T00:29:41;100885.72;;;20.54;100.00
45275;BME280;31019;43.780;25.948;2023-06-19T00:32:08;100894.91;;;20.63;100.00
45275;BME280;31019;43.780;25.948;2023-06-19T00:34:34;100890.63;;;20.67;100.00
45275;BME280;31019;43.780;25.948;2023-06-19T00:37:02;100891.41;;;20.57;100.00
45275;BME280;31019;43.780;25.948;2023-06-19T00:39:31;100895.69;;;20.43;100.00
45275;BME280;31019;43.780;25.948;2023-06-19T00:41:58;100900.53;;;20.41;100.00
45275;BME280;31019;43.780;25.948;2023-06-19T00:44:25;100897.25;;;20.29;100.00
45275;BME280;31019;43.780;25.948;2023-06-19T00:47:00;100895.69;;;20.43;100.00
45275;BME280;31019;43.780;25.948;2023-06-19T00:49:29;100894.59;;;20.34;100.00
45275;BME280;31019;43.780;25.948;2023-06-19T00:51:56;100900.53;;;20.41;100.00
45275;BME280;31019;43.780;25.948;2023-06-19T00:54:23;100910.28;;;20.63;100.00
45275;BME280;31019;43.780;25.948;2023-06-19T00:56:52;100902.47;;;20.61;100.00
45275;BME280;31019;43.780;25.948;2023-06-19T00:59:19;100899.72;;;20.51;100.00
45275;BME280;31019;43.780;25.948;2023-06-19T01:01:46;100902.44;;;20.46;100.00
45275;BME280;31019;43.780;25.948;2023-06-19T01:04:13;100893.78;;;20.44;100.00
45275;BME280;31019;43.780;25.948;2023-06-19T01:06:54;100887.31;;;20.40;100.00
45275;BME280;31019;43.780;25.948;2023-06-19T01:09:28;100889.09;;;20.08;100.00
45275;BME280;31019;43.780;25.948;2023-06-19T01:12:03;100889.41;;;20.17;100.00
45275;BME280;31019;43.780;25.948;2023-06-19T01:14:39;100892.19;;;19.70;100.00
45275;BME280;31019;43.780;25.948;2023-06-19T01:17:11;100897.78;;;19.58;100.00
45275;BME280;31019;43.780;25.948;2023-06-19T01:19:38;100901.56;;;19.19;100.00
45275;BME280;31019;43.780;25.948;2023-06-19T01:22:07;100894.06;;;19.21;100.00
45275;BME280;31019;43.780;25.948;2023-06-19T01:24:34;100901.84;;;19.23;100.00
45275;BME280;31019;43.780;25.948;2023-06-19T01:27:00;100895.41;;;19.24;100.00
45275;BME280;31019;43.780;25.948;2023-06-19T01:29:28;100897.75;;;19.10;100.00
45275;BME280;31019;43.780;25.948;2023-06-19T01:32:02;100900.16;;;19.12;100.00
45275;BME280;31019;43.780;25.948;2023-06-19T01:34:31;100897.50;;;19.17;100.00
45275;BME280;31019;43.780;25.948;2023-06-19T01:37:00;100892.25;;;19.00;100.00
45275;BME280;31019;43.780;25.948;2023-06-19T01:39:29;100892.47;;;18.88;100.00
45275;BME280;31019;43.780;25.948;2023-06-19T01:41:57;100896.19;;;18.87;100.00
45275;BME280;31019;43.780;25.948;2023-06-19T01:44:26;100893.50;;;18.82;100.00
45275;BME280;31019;43.780;25.948;2023-06-19T01:46:53;100895.44;;;18.65;100.00
45275;BME280;31019;43.780;25.948;2023-06-19T01:49:20;100898.16;;;18.97;100.00
45275;BME280;31019;43.780;25.948;2023-06-19T01:51:47;100898.78;;;19.04;100.00
45275;BME280;31019;43.780;25.948;2023-06-19T01:54:14;100897.56;;;19.22;100.00
45275;BME280;31019;43.780;25.948;2023-06-19T01:56:45;100908.91;;;19.29;100.00
45275;BME280;31019;43.780;25.948;2023-06-19T01:59:12;100909.78;;;19.03;100.00
45275;BME280;31019;43.780;25.948;2023-06-19T02:01:38;100928.50;;;18.87;100.00
45275;BME280;31019;43.780;25.948;2023-06-19T02:04:05;100920.34;;;18.77;100.00
45275;BME280;31019;43.780;25.948;2023-06-19T02:06:32;100924.31;;;19.02;100.00
45275;BME280;31019;43.780;25.948;2023-06-19T02:08:59;100929.00;;;19.16;100.00
45275;BME280;31019;43.780;25.948;2023-06-19T02:11:26;100932.84;;;19.26;100.00
45275;BME280;31019;43.780;25.948;2023-06-19T02:13:54;100935.25;;;19.22;100.00
45275;BME280;31019;43.780;25.948;2023-06-19T02:16:21;100936.00;;;19.17;100.00
45275;BME280;31019;43.780;25.948;2023-06-19T02:18:48;100927.31;;;19.05;100.00
45275;BME280;31019;43.780;25.948;2023-06-19T02:21:15;100942.25;;;19.23;100.00
45275;BME280;31019;43.780;25.948;2023-06-19T02:23:42;100939.31;;;19.30;100.00
45275;BME280;31019;43.780;25.948;2023-06-19T02:26:09;100948.84;;;19.42;100.00
45275;BME280;31019;43.780;25.948;2023-06-19T02:28:36;100947.31;;;19.52;100.00
45275;BME280;31019;43.780;25.948;2023-06-19T02:31:04;100943.50;;;19.10;100.00
45275;BME280;31019;43.780;25.948;2023-06-19T02:33:31;100941.06;;;19.09;100.00
45275;BME280;31019;43.780;25.948;2023-06-19T02:35:58;100952.50;;;19.26;100.00
45275;BME280;31019;43.780;25.948;2023-06-19T02:38:25;100955.25;;;19.31;100.00
45275;BME280;31019;43.780;25.948;2023-06-19T02:40:52;100959.97;;;18.87;100.00
45275;BME280;31019;43.780;25.948;2023-06-19T02:43:19;100958.72;;;18.94;100.00
45275;BME280;31019;43.780;25.948;2023-06-19T02:45:45;100968.59;;;19.21;100.00
45275;BME280;31019;43.780;25.948;2023-06-19T02:48:14;100968.31;;;19.17;100.00
45275;BME280;31019;43.780;25.948;2023-06-19T02:50:41;100968.69;;;18.72;100.00
45275;BME280;31019;43.780;25.948;2023-06-19T02:53:08;100963.84;;;18.96;100.00
45275;BME280;31019;43.780;25.948;2023-06-19T02:55:36;100970.28;;;18.95;100.00
45275;BME280;31019;43.780;25.948;2023-06-19T02:58:03;100971.66;;;18.97;100.00
45275;BME280;31019;43.780;25.948;2023-06-19T03:00:30;100971.56;;;18.65;100.00
45275;BME280;31019;43.780;25.948;2023-06-19T03:02:57;100973.84;;;18.73;100.00
45275;BME280;31019;43.780;25.948;2023-06-19T03:05:25;100970.75;;;19.19;100.00
45275;BME280;31019;43.780;25.948;2023-06-19T03:07:52;100960.28;;;19.22;100.00
45275;BME280;31019;43.780;25.948;2023-06-19T03:10:19;100965.09;;;19.20;100.00
45275;BME280;31019;43.780;25.948;2023-06-19T03:12:46;100973.91;;;19.11;100.00
45275;BME280;31019;43.780;25.948;2023-06-19T03:15:14;100984.03;;;18.98;100.00
45275;BME280;31019;43.780;25.948;2023-06-19T03:17:40;100980.56;;;19.03;100.00
45275;BME280;31019;43.780;25.948;2023-06-19T03:20:08;100979.72;;;19.30;100.00
45275;BME280;31019;43.780;25.948;2023-06-19T03:22:39;100974.66;;;19.38;100.00
45275;BME280;31019;43.780;25.948;2023-06-19T03:25:07;100979.75;;;18.97;100.00
45275;BME280;31019;43.780;25.948;2023-06-19T03:27:35;100978.97;;;19.02;100.00
45275;BME280;31019;43.780;25.948;2023-06-19T03:30:02;100988.44;;;19.42;100.00
45275;BME280;31019;43.780;25.948;2023-06-19T03:32:31;100993.88;;;19.47;100.00
45275;BME280;31019;43.780;25.948;2023-06-19T03:34:59;100995.69;;;19.41;100.00
45275;BME280;31019;43.780;25.948;2023-06-19T03:37:25;100998.16;;;19.43;100.00
45275;BME280;31019;43.780;25.948;2023-06-19T03:39:54;101002.00;;;19.57;100.00
45275;BME280;31019;43.780;25.948;2023-06-19T03:42:21;101012.81;;;19.62;100.00
45275;BME280;31019;43.780;25.948;2023-06-19T03:44:47;101011.88;;;19.74;100.00
45275;BME280;31019;43.780;25.948;2023-06-19T03:47:14;101016.97;;;19.70;100.00
45275;BME280;31019;43.780;25.948;2023-06-19T03:49:42;101009.53;;;19.93;100.00
45275;BME280;31019;43.780;25.948;2023-06-19T03:52:09;101015.22;;;19.91;100.00
45275;BME280;31019;43.780;25.948;2023-06-19T03:54:36;101008.88;;;19.70;100.00
45275;BME280;31019;43.780;25.948;2023-06-19T03:57:05;101014.56;;;19.74;100.00
45275;BME280;31019;43.780;25.948;2023-06-19T03:59:33;101013.63;;;19.58;100.00
45275;BME280;31019;43.780;25.948;2023-06-19T04:02:00;101002.13;;;19.73;100.00
45275;BME280;31019;43.780;25.948;2023-06-19T04:04:27;100991.72;;;19.86;100.00
45275;BME280;31019;43.780;25.948;2023-06-19T04:06:54;100981.97;;;19.80;100.00
45275;BME280;31019;43.780;25.948;2023-06-19T04:09:21;100979.13;;;19.55;100.00
45275;BME280;31019;43.780;25.948;2023-06-19T04:11:48;100968.25;;;19.44;100.00
45275;BME280;31019;43.780;25.948;2023-06-19T04:14:16;100967.44;;;19.44;100.00
45275;BME280;31019;43.780;25.948;2023-06-19T04:16:43;100965.50;;;19.34;100.00
45275;BME280;31019;43.780;25.948;2023-06-19T04:19:10;100959.59;;;19.42;100.00
45275;BME280;31019;43.780;25.948;2023-06-19T04:21:36;100959.53;;;19.32;100.00
45275;BME280;31019;43.780;25.948;2023-06-19T04:24:04;100961.81;;;19.45;100.00
45275;BME280;31019;43.780;25.948;2023-06-19T04:26:34;100963.13;;;19.43;100.00
45275;BME280;31019;43.780;25.948;2023-06-19T04:29:01;100966.69;;;19.49;100.00
45275;BME280;31019;43.780;25.948;2023-06-19T04:31:29;100966.97;;;19.57;100.00
45275;BME280;31019;43.780;25.948;2023-06-19T04:33:56;100971.31;;;19.58;100.00
45275;BME280;31019;43.780;25.948;2023-06-19T04:36:23;100975.91;;;19.63;100.00
45275;BME280;31019;43.780;25.948;2023-06-19T04:38:50;100966.75;;;19.59;100.00
45275;BME280;31019;43.780;25.948;2023-06-19T04:41:17;100975.56;;;19.86;100.00
45275;BME280;31019;43.780;25.948;2023-06-19T04:43:44;100969.91;;;19.88;100.00
45275;BME280;31019;43.780;25.948;2023-06-19T04:46:11;100972.00;;;19.81;100.00
45275;BME280;31019;43.780;25.948;2023-06-19T04:48:39;100981.50;;;19.94;100.00
45275;BME280;31019;43.780;25.948;2023-06-19T04:51:06;100988.03;;;20.03;100.00
45275;BME280;31019;43.780;25.948;2023-06-19T04:53:33;100991.03;;;20.06;100.00
45275;BME280;31019;43.780;25.948;2023-06-19T04:56:00;100989.41;;;20.10;100.00
45275;BME280;31019;43.780;25.948;2023-06-19T04:58:27;100986.19;;;20.13;100.00
45275;BME280;31019;43.780;25.948;2023-06-19T05:00:53;100993.19;;;20.14;100.00
45275;BME280;31019;43.780;25.948;2023-06-19T05:03:20;100990.91;;;20.44;100.00
45275;BME280;31019;43.780;25.948;2023-06-19T05:05:49;100994.31;;;20.19;100.00
45275;BME280;31019;43.780;25.948;2023-06-19T05:08:16;101005.41;;;20.32;100.00
45275;BME280;31019;43.780;25.948;2023-06-19T05:10:43;101007.03;;;20.28;100.00
45275;BME280;31019;43.780;25.948;2023-06-19T05:13:10;101005.66;;;20.26;100.00
45275;BME280;31019;43.780;25.948;2023-06-19T05:15:36;101000.28;;;20.36;100.00
45275;BME280;31019;43.780;25.948;2023-06-19T05:18:03;101012.31;;;20.61;100.00
45275;BME280;31019;43.780;25.948;2023-06-19T05:20:30;101009.88;;;20.69;100.00
45275;BME280;31019;43.780;25.948;2023-06-19T05:22:58;101014.53;;;20.94;100.00
45275;BME280;31019;43.780;25.948;2023-06-19T05:25:25;101006.69;;;20.83;100.00
45275;BME280;31019;43.780;25.948;2023-06-19T05:27:53;101002.66;;;20.85;100.00
45275;BME280;31019;43.780;25.948;2023-06-19T05:30:20;101009.41;;;21.08;100.00
45275;BME280;31019;43.780;25.948;2023-06-19T05:32:46;101002.94;;;21.09;100.00
45275;BME280;31019;43.780;25.948;2023-06-19T05:35:13;100998.88;;;21.12;100.00
45275;BME280;31019;43.780;25.948;2023-06-19T05:37:40;100997.75;;;20.72;100.00
45275;BME280;31019;43.780;25.948;2023-06-19T05:40:11;101005.66;;;21.24;100.00
45275;BME280;31019;43.780;25.948;2023-06-19T05:42:39;101004.81;;;21.29;100.00
45275;BME280;31019;43.780;25.948;2023-06-19T05:45:07;101006.19;;;21.42;100.00
45275;BME280;31019;43.780;25.948;2023-06-19T05:47:34;100995.75;;;22.75;100.00
45275;BME280;31019;43.780;25.948;2023-06-19T05:50:01;101007.97;;;22.08;100.00
45275;BME280;31019;43.780;25.948;2023-06-19T05:52:28;101009.34;;;21.95;100.00
45275;BME280;31019;43.780;25.948;2023-06-19T05:54:55;101005.63;;;21.76;100.00
45275;BME280;31019;43.780;25.948;2023-06-19T05:57:25;101007.41;;;22.16;100.00
45275;BME280;31019;43.780;25.948;2023-06-19T05:59:51;101013.09;;;22.20;100.00
45275;BME280;31019;43.780;25.948;2023-06-19T06:02:19;101018.69;;;22.44;100.00
45275;BME280;31019;43.780;25.948;2023-06-19T06:04:46;101015.97;;;22.44;100.00
45275;BME280;31019;43.780;25.948;2023-06-19T06:07:13;101015.56;;;22.66;100.00
45275;BME280;31019;43.780;25.948;2023-06-19T06:09:42;101009.59;;;22.74;100.00
45275;BME280;31019;43.780;25.948;2023-06-19T06:12:09;101019.16;;;22.51;100.00
45275;BME280;31019;43.780;25.948;2023-06-19T06:14:39;101010.94;;;22.71;100.00
45275;BME280;31019;43.780;25.948;2023-06-19T06:17:06;101009.38;;;22.60;100.00
45275;BME280;31019;43.780;25.948;2023-06-19T06:19:33;101008.22;;;22.76;100.00
45275;BME280;31019;43.780;25.948;2023-06-19T06:22:02;101007.00;;;23.03;100.00
45275;BME280;31019;43.780;25.948;2023-06-19T06:24:29;101015.88;;;23.08;100.00
45275;BME280;31019;43.780;25.948;2023-06-19T06:26:56;101007.38;;;23.20;100.00
45275;BME280;31019;43.780;25.948;2023-06-19T06:29:24;101009.13;;;23.40;100.00
45275;BME280;31019;43.780;25.948;2023-06-19T06:32:02;101012.69;;;23.65;100.00
45275;BME280;31019;43.780;25.948;2023-06-19T06:34:30;101012.50;;;23.27;100.00
45275;BME280;31019;43.780;25.948;2023-06-19T06:36:59;101006.81;;;23.23;100.00
45275;BME280;31019;43.780;25.948;2023-06-19T06:39:26;101009.78;;;23.56;100.00
45275;BME280;31019;43.780;25.948;2023-06-19T06:41:53;101005.69;;;23.59;100.00
45275;BME280;31019;43.780;25.948;2023-06-19T06:44:20;101001.88;;;23.60;100.00
45275;BME280;31019;43.780;25.948;2023-06-19T06:46:46;101007.06;;;23.56;100.00
45275;BME280;31019;43.780;25.948;2023-06-19T06:49:15;101008.22;;;23.79;100.00
45275;BME280;31019;43.780;25.948;2023-06-19T06:51:42;101002.28;;;23.77;100.00
45275;BME280;31019;43.780;25.948;2023-06-19T06:54:09;101001.25;;;23.68;100.00
45275;BME280;31019;43.780;25.948;2023-06-19T06:56:36;101006.31;;;23.50;100.00
45275;BME280;31019;43.780;25.948;2023-06-19T06:59:03;101005.16;;;23.57;100.00
45275;BME280;31019;43.780;25.948;2023-06-19T07:01:30;101005.06;;;23.96;100.00
45275;BME280;31019;43.780;25.948;2023-06-19T07:03:57;101009.84;;;24.04;100.00
45275;BME280;31019;43.780;25.948;2023-06-19T07:06:25;100999.75;;;24.10;100.00
45275;BME280;31019;43.780;25.948;2023-06-19T07:08:52;101009.09;;;24.22;100.00
45275;BME280;31019;43.780;25.948;2023-06-19T07:11:19;101005.50;;;24.27;100.00
45275;BME280;31019;43.780;25.948;2023-06-19T07:13:45;101011.78;;;24.22;100.00
45275;BME280;31019;43.780;25.948;2023-06-19T07:16:12;101012.75;;;24.56;100.00
45275;BME280;31019;43.780;25.948;2023-06-19T07:18:40;101010.69;;;24.23;100.00
45275;BME280;31019;43.780;25.948;2023-06-19T07:21:11;101003.28;;;24.29;100.00
45275;BME280;31019;43.780;25.948;2023-06-19T07:23:41;101010.34;;;24.30;100.00
45275;BME280;31019;43.780;25.948;2023-06-19T07:26:09;101016.81;;;24.34;100.00
45275;BME280;31019;43.780;25.948;2023-06-19T07:28:36;101013.81;;;24.36;100.00
45275;BME280;31019;43.780;25.948;2023-06-19T07:31:03;101018.97;;;23.89;100.00
45275;BME280;31019;43.780;25.948;2023-06-19T07:33:30;101019.31;;;24.31;100.00
45275;BME280;31019;43.780;25.948;2023-06-19T07:35:57;101021.63;;;24.42;100.00
45275;BME280;31019;43.780;25.948;2023-06-19T07:38:24;101022.78;;;23.88;100.00
45275;BME280;31019;43.780;25.948;2023-06-19T07:40:52;101025.13;;;23.71;100.00
45275;BME280;31019;43.780;25.948;2023-06-19T07:43:19;101022.31;;;24.05;100.00
45275;BME280;31019;43.780;25.948;2023-06-19T07:45:47;101027.22;;;23.79;100.00
45275;BME280;31019;43.780;25.948;2023-06-19T07:48:14;101021.72;;;23.84;100.00
45275;BME280;31019;43.780;25.948;2023-06-19T07:50:42;101028.63;;;24.00;100.00
45275;BME280;31019;43.780;25.948;2023-06-19T07:53:09;101027.50;;;24.50;100.00
45275;BME280;31019;43.780;25.948;2023-06-19T07:55:37;101030.59;;;24.81;100.00
45275;BME280;31019;43.780;25.948;2023-06-19T07:58:05;101025.91;;;24.25;100.00
45275;BME280;31019;43.780;25.948;2023-06-19T08:00:32;101023.63;;;24.75;100.00
45275;BME280;31019;43.780;25.948;2023-06-19T08:02:58;101022.44;;;25.00;100.00
45275;BME280;31019;43.780;25.948;2023-06-19T08:05:25;101025.06;;;25.05;100.00
45275;BME280;31019;43.780;25.948;2023-06-19T08:07:52;101020.09;;;25.12;100.00
45275;BME280;31019;43.780;25.948;2023-06-19T08:10:19;101018.72;;;25.15;100.00
45275;BME280;31019;43.780;25.948;2023-06-19T08:12:46;101021.19;;;25.30;100.00
45275;BME280;31019;43.780;25.948;2023-06-19T08:15:14;101031.88;;;25.40;100.00
45275;BME280;31019;43.780;25.948;2023-06-19T08:17:41;101022.66;;;25.22;100.00
45275;BME280;31019;43.780;25.948;2023-06-19T08:20:09;101023.41;;;25.09;100.00
45275;BME280;31019;43.780;25.948;2023-06-19T08:22:36;101027.38;;;24.79;100.00
45275;BME280;31019;43.780;25.948;2023-06-19T08:25:05;101031.13;;;24.83;100.00
45275;BME280;31019;43.780;25.948;2023-06-19T08:27:32;101027.22;;;24.70;100.00
45275;BME280;31019;43.780;25.948;2023-06-19T08:29:59;101021.22;;;24.30;100.00
45275;BME280;31019;43.780;25.948;2023-06-19T08:32:28;101029.63;;;24.53;100.00
45275;BME280;31019;43.780;25.948;2023-06-19T08:34:54;101035.22;;;24.61;100.00
45275;BME280;31019;43.780;25.948;2023-06-19T08:37:21;101028.47;;;24.59;100.00
45275;BME280;31019;43.780;25.948;2023-06-19T08:39:48;101033.25;;;24.67;100.00
45275;BME280;31019;43.780;25.948;2023-06-19T08:42:15;101034.94;;;24.82;100.00
45275;BME280;31019;43.780;25.948;2023-06-19T08:44:42;101033.81;;;25.02;100.00
45275;BME280;31019;43.780;25.948;2023-06-19T08:47:09;101027.63;;;25.34;100.00
45275;BME280;31019;43.780;25.948;2023-06-19T08:49:38;101024.50;;;25.27;100.00
45275;BME280;31019;43.780;25.948;2023-06-19T08:52:06;101022.91;;;25.40;100.00
45275;BME280;31019;43.780;25.948;2023-06-19T08:54:33;101017.94;;;25.61;100.00
45275;BME280;31019;43.780;25.948;2023-06-19T08:57:09;101017.34;;;25.64;100.00
45275;BME280;31019;43.780;25.948;2023-06-19T08:59:36;101020.94;;;25.59;100.00
45275;BME280;31019;43.780;25.948;2023-06-19T09:02:04;101023.41;;;26.02;100.00
45275;BME280;31019;43.780;25.948;2023-06-19T09:04:31;101023.09;;;26.45;100.00
45275;BME280;31019;43.780;25.948;2023-06-19T09:07:01;101017.19;;;26.79;100.00
45275;BME280;31019;43.780;25.948;2023-06-19T09:09:28;101017.34;;;26.46;100.00
45275;BME280;31019;43.780;25.948;2023-06-19T09:12:01;101013.63;;;26.28;100.00
45275;BME280;31019;43.780;25.948;2023-06-19T09:14:32;101021.50;;;26.58;100.00
45275;BME280;31019;43.780;25.948;2023-06-19T09:17:00;101020.69;;;26.43;100.00
45275;BME280;31019;43.780;25.948;2023-06-19T09:19:27;101022.22;;;26.22;100.00
45275;BME280;31019;43.780;25.948;2023-06-19T09:22:00;101021.25;;;26.68;100.00
45275;BME280;31019;43.780;25.948;2023-06-19T09:24:33;101027.66;;;26.49;100.00
45275;BME280;31019;43.780;25.948;2023-06-19T09:27:06;101028.88;;;26.30;100.00
45275;BME280;31019;43.780;25.948;2023-06-19T09:29:36;101032.72;;;26.15;100.00
45275;BME280;31019;43.780;25.948;2023-06-19T09:32:14;101022.22;;;26.22;100.00
45275;BME280;31019;43.780;25.948;2023-06-19T09:34:41;101023.25;;;26.12;100.00
45275;BME280;31019;43.780;25.948;2023-06-19T09:37:10;101019.47;;;26.63;100.00
45275;BME280;31019;43.780;25.948;2023-06-19T09:39:37;101015.31;;;26.66;100.00
45275;BME280;31019;43.780;25.948;2023-06-19T09:42:07;101012.75;;;26.33;100.00
45275;BME280;31019;43.780;25.948;2023-06-19T09:44:39;101012.03;;;26.78;100.00
45275;BME280;31019;43.780;25.948;2023-06-19T09:47:14;101012.13;;;26.86;100.00
45275;BME280;31019;43.780;25.948;2023-06-19T09:49:48;101010.94;;;26.79;100.00
45275;BME280;31019;43.780;25.948;2023-06-19T09:52:17;101003.91;;;27.00;100.00
45275;BME280;31019;43.780;25.948;2023-06-19T09:54:47;101008.41;;;27.05;100.00
45275;BME280;31019;43.780;25.948;2023-06-19T09:57:16;101000.88;;;27.24;100.00
45275;BME280;31019;43.780;25.948;2023-06-19T09:59:46;101005.31;;;26.98;100.00
45275;BME280;31019;43.780;25.948;2023-06-19T10:02:15;100996.19;;;26.80;100.00
45275;BME280;31019;43.780;25.948;2023-06-19T10:04:44;100994.41;;;26.75;100.00
45275;BME280;31019;43.780;25.948;2023-06-19T10:07:17;100986.66;;;27.13;100.00
45275;BME280;31019;43.780;25.948;2023-06-19T10:09:58;100987.94;;;28.01;100.00
45275;BME280;31019;43.780;25.948;2023-06-19T10:12:39;100988.19;;;27.82;100.00
45275;BME280;31019;43.780;25.948;2023-06-19T10:15:11;100982.59;;;27.25;100.00
45275;BME280;31019;43.780;25.948;2023-06-19T10:17:43;100975.84;;;27.53;100.00
45275;BME280;31019;43.780;25.948;2023-06-19T10:20:28;100971.50;;;27.83;100.00
45275;BME280;31019;43.780;25.948;2023-06-19T10:23:04;100974.00;;;28.11;100.00
45275;BME280;31019;43.780;25.948;2023-06-19T10:25:33;100978.31;;;28.03;100.00
45275;BME280;31019;43.780;25.948;2023-06-19T10:28:01;100974.16;;;27.66;100.00
45275;BME280;31019;43.780;25.948;2023-06-19T10:30:31;100969.47;;;27.58;100.00
45275;BME280;31019;43.780;25.948;2023-06-19T10:32:59;100961.50;;;27.39;100.00
45275;BME280;31019;43.780;25.948;2023-06-19T10:35:36;100966.31;;;26.38;100.00
45275;BME280;31019;43.780;25.948;2023-06-19T10:38:05;100972.97;;;26.82;100.00
45275;BME280;31019;43.780;25.948;2023-06-19T10:40:32;100970.06;;;26.79;100.00
45275;BME280;31019;43.780;25.948;2023-06-19T10:42:59;100973.75;;;26.10;100.00
45275;BME280;31019;43.780;25.948;2023-06-19T10:45:26;100975.28;;;26.02;100.00
45275;BME280;31019;43.780;25.948;2023-06-19T10:47:55;100958.69;;;25.44;100.00
45275;BME280;31019;43.780;25.948;2023-06-19T10:50:22;100958.13;;;25.88;100.00
45275;BME280;31019;43.780;25.948;2023-06-19T10:52:52;100982.50;;;25.00;100.00
45275;BME280;31019;43.780;25.948;2023-06-19T10:55:21;100987.88;;;24.86;100.00
45275;BME280;31019;43.780;25.948;2023-06-19T10:57:49;100989.09;;;24.37;100.00
45275;BME280;31019;43.780;25.948;2023-06-19T11:00:24;100987.16;;;24.43;100.00
45275;BME280;31019;43.780;25.948;2023-06-19T11:02:52;100986.59;;;24.41;100.00
45275;BME280;31019;43.780;25.948;2023-06-19T11:05:20;100991.25;;;23.39;100.00
45275;BME280;31019;43.780;25.948;2023-06-19T11:07:51;100985.63;;;23.89;100.00
45275;BME280;31019;43.780;25.948;2023-06-19T11:10:24;100994.97;;;23.14;100.00
45275;BME280;31019;43.780;25.948;2023-06-19T11:12:54;100991.09;;;23.54;100.00
45275;BME280;31019;43.780;25.948;2023-06-19T11:15:28;100990.16;;;23.06;100.00
45275;BME280;31019;43.780;25.948;2023-06-19T11:17:55;100993.56;;;22.82;100.00
45275;BME280;31019;43.780;25.948;2023-06-19T11:20:22;100991.16;;;23.79;100.00
45275;BME280;31019;43.780;25.948;2023-06-19T11:22:55;100996.34;;;23.99;100.00
45275;BME280;31019;43.780;25.948;2023-06-19T11:25:23;101001.13;;;23.25;100.00
45275;BME280;31019;43.780;25.948;2023-06-19T11:27:51;101000.13;;;24.22;100.00
45275;BME280;31019;43.780;25.948;2023-06-19T11:30:30;100997.22;;;24.37;100.00
45275;BME280;31019;43.780;25.948;2023-06-19T11:32:58;100988.81;;;24.39;100.00
45275;BME280;31019;43.780;25.948;2023-06-19T11:35:32;100994.41;;;24.23;100.00
45275;BME280;31019;43.780;25.948;2023-06-19T11:38:01;100993.34;;;24.00;100.00
45275;BME280;31019;43.780;25.948;2023-06-19T11:40:39;100988.50;;;23.10;100.00
45275;BME280;31019;43.780;25.948;2023-06-19T11:43:05;100991.78;;;23.07;100.00
45275;BME280;31019;43.780;25.948;2023-06-19T11:45:44;100986.75;;;23.53;100.00
45275;BME280;31019;43.780;25.948;2023-06-19T11:48:11;100981.31;;;24.31;100.00
45275;BME280;31019;43.780;25.948;2023-06-19T11:50:38;100974.16;;;24.59;100.00
45275;BME280;31019;43.780;25.948;2023-06-19T11:53:05;100969.81;;;24.77;100.00
45275;BME280;31019;43.780;25.948;2023-06-19T11:55:33;100967.63;;;24.79;100.00
45275;BME280;31019;43.780;25.948;2023-06-19T11:58:00;100953.19;;;24.45;100.00
45275;BME280;31019;43.780;25.948;2023-06-19T12:00:27;100944.97;;;25.21;100.00
45275;BME280;31019;43.780;25.948;2023-06-19T12:02:54;100931.38;;;25.35;100.00
45275;BME280;31019;43.780;25.948;2023-06-19T12:05:22;100922.94;;;25.36;100.00
45275;BME280;31019;43.780;25.948;2023-06-19T12:07:49;100916.00;;;25.86;100.00
45275;BME280;31019;43.780;25.948;2023-06-19T12:10:16;100916.59;;;25.27;100.00
45275;BME280;31019;43.780;25.948;2023-06-19T12:12:45;100897.63;;;26.19;100.00
45275;BME280;31019;43.780;25.948;2023-06-19T12:15:11;100890.91;;;25.61;100.00
45275;BME280;31019;43.780;25.948;2023-06-19T12:17:38;100898.91;;;25.85;100.00
45275;BME280;31019;43.780;25.948;2023-06-19T12:20:06;100898.66;;;26.09;100.00
45275;BME280;31019;43.780;25.948;2023-06-19T12:22:34;100891.94;;;26.88;100.00
45275;BME280;31019;43.780;25.948;2023-06-19T12:25:01;100895.19;;;26.54;100.00
45275;BME280;31019;43.780;25.948;2023-06-19T12:27:28;100899.47;;;26.91;100.00
45275;BME280;31019;43.780;25.948;2023-06-19T12:29:56;100918.50;;;26.46;100.00
45275;BME280;31019;43.780;25.948;2023-06-19T12:32:24;100902.78;;;26.57;100.00
45275;BME280;31019;43.780;25.948;2023-06-19T12:34:51;100908.81;;;27.21;100.00